sensor_id;sensor_type;location;lat;lon;timestamp;temperature;humidity
24618;DHT22;12762;51.730;5.356;2023-04-19T00:01:40;10.10;68.90
24618;DHT22;12762;51.730;5.356;2023-04-19T00:04:07;10.10;68.90
24618;DHT22;12762;51.730;5.356;2023-04-19T00:06:34;10.20;69.00
24618;DHT22;12762;51.730;5.356;2023-04-19T00:09:02;10.20;69.00
24618;DHT22;12762;51.730;5.356;2023-04-19T00:11:32;10.20;69.00
24618;DHT22;12762;51.730;5.356;2023-04-19T00:13:59;10.30;69.10
24618;DHT22;12762;51.730;5.356;2023-04-19T00:16:26;10.30;69.10
24618;DHT22;12762;51.730;5.356;2023-04-19T00:18:52;10.30;69.10
24618;DHT22;12762;51.730;5.356;2023-04-19T00:21:19;10.40;69.20
24618;DHT22;12762;51.730;5.356;2023-04-19T00:23:46;10.40;69.20
24618;DHT22;12762;51.730;5.356;2023-04-19T00:26:13;10.40;69.20
24618;DHT22;12762;51.730;5.356;2023-04-19T00:28:43;10.50;69.30
24618;DHT22;12762;51.730;5.356;2023-04-19T00:31:10;10.50;69.30
24618;DHT22;12762;51.730;5.356;2023-04-19T00:33:36;10.50;69.30
24618;DHT22;12762;51.730;5.356;2023-04-19T00:36:03;10.60;69.40
24618;DHT22;12762;51.730;5.356;2023-04-19T00:38:30;10.60;69.50
24618;DHT22;12762;51.730;5.356;2023-04-19T00:41:00;10.60;69.50
24618;DHT22;12762;51.730;5.356;2023-04-19T00:43:27;10.60;69.60
24618;DHT22;12762;51.730;5.356;2023-04-19T00:45:56;10.60;69.50
24618;DHT22;12762;51.730;5.356;2023-04-19T00:48:23;10.70;69.70
24618;DHT22;12762;51.730;5.356;2023-04-19T00:50:51;10.70;69.70
24618;DHT22;12762;51.730;5.356;2023-04-19T00:53:17;10.70;69.70
24618;DHT22;12762;51.730;5.356;2023-04-19T00:55:44;10.70;69.70
24618;DHT22;12762;51.730;5.356;2023-04-19T00:58:11;10.70;69.80
24618;DHT22;12762;51.730;5.356;2023-04-19T01:00:38;10.70;69.80
24618;DHT22;12762;51.730;5.356;2023-04-19T01:03:06;10.80;69.90
24618;DHT22;12762;51.730;5.356;2023-04-19T01:05:34;10.80;69.90
24618;DHT22;12762;51.730;5.356;2023-04-19T01:08:02;10.80;69.90
24618;DHT22;12762;51.730;5.356;2023-04-19T01:10:28;10.80;69.90
24618;DHT22;12762;51.730;5.356;2023-04-19T01:12:55;10.80;69.90
24618;DHT22;12762;51.730;5.356;2023-04-19T01:15:22;10.80;70.00
24618;DHT22;12762;51.730;5.356;2023-04-19T01:17:49;10.80;70.00
24618;DHT22;12762;51.730;5.356;2023-04-19T01:20:16;10.80;70.00
24618;DHT22;12762;51.730;5.356;2023-04-19T01:22:43;10.80;70.00
24618;DHT22;12762;51.730;5.356;2023-04-19T01:25:10;10.90;70.20
24618;DHT22;12762;51.730;5.356;2023-04-19T01:27:37;10.90;70.20
24618;DHT22;12762;51.730;5.356;2023-04-19T01:30:04;10.90;70.20
24618;DHT22;12762;51.730;5.356;2023-04-19T01:32:31;10.90;70.20
24618;DHT22;12762;51.730;5.356;2023-04-19T01:34:58;11.00;70.20
24618;DHT22;12762;51.730;5.356;2023-04-19T01:37:25;11.00;70.20
24618;DHT22;12762;51.730;5.356;2023-04-19T01:39:52;11.00;70.20
24618;DHT22;12762;51.730;5.356;2023-04-19T01:42:19;11.00;70.20
24618;DHT22;12762;51.730;5.356;2023-04-19T01:44:46;11.10;70.30
24618;DHT22;12762;51.730;5.356;2023-04-19T01:47:13;11.10;70.30
24618;DHT22;12762;51.730;5.356;2023-04-19T01:49:40;11.10;71.10
24618;DHT22;12762;51.730;5.356;2023-04-19T01:52:07;11.10;70.40
24618;DHT22;12762;51.730;5.356;2023-04-19T01:54:33;11.20;70.40
24618;DHT22;12762;51.730;5.356;2023-04-19T01:57:00;11.20;70.40
24618;DHT22;12762;51.730;5.356;2023-04-19T01:59:30;11.20;70.40
24618;DHT22;12762;51.730;5.356;2023-04-19T02:01:57;11.20;70.40
24618;DHT22;12762;51.730;5.356;2023-04-19T02:04:24;11.20;70.40
24618;DHT22;12762;51.730;5.356;2023-04-19T02:06:50;11.20;70.40
24618;DHT22;12762;51.730;5.356;2023-04-19T02:09:17;11.20;70.40
24618;DHT22;12762;51.730;5.356;2023-04-19T02:11:44;11.20;70.40
24618;DHT22;12762;51.730;5.356;2023-04-19T02:14:11;11.20;70.40
24618;DHT22;12762;51.730;5.356;2023-04-19T02:16:38;11.20;70.50
24618;DHT22;12762;51.730;5.356;2023-04-19T02:19:05;11.10;70.40
24618;DHT22;12762;51.730;5.356;2023-04-19T02:21:32;11.10;70.50
24618;DHT22;12762;51.730;5.356;2023-04-19T02:23:59;11.10;70.50
24618;DHT22;12762;51.730;5.356;2023-04-19T02:26:26;11.00;70.50
24618;DHT22;12762;51.730;5.356;2023-04-19T02:28:53;11.00;70.50
24618;DHT22;12762;51.730;5.356;2023-04-19T02:31:20;11.00;70.50
24618;DHT22;12762;51.730;5.356;2023-04-19T02:33:47;10.90;70.60
24618;DHT22;12762;51.730;5.356;2023-04-19T02:36:14;10.80;70.60
24618;DHT22;12762;51.730;5.356;2023-04-19T02:38:44;10.80;70.70
24618;DHT22;12762;51.730;5.356;2023-04-19T02:41:10;10.70;70.80
24618;DHT22;12762;51.730;5.356;2023-04-19T02:43:37;10.70;70.90
24618;DHT22;12762;51.730;5.356;2023-04-19T02:46:08;10.60;70.90
24618;DHT22;12762;51.730;5.356;2023-04-19T02:48:35;10.60;71.10
24618;DHT22;12762;51.730;5.356;2023-04-19T02:51:02;10.60;71.10
24618;DHT22;12762;51.730;5.356;2023-04-19T02:53:29;10.60;71.20
24618;DHT22;12762;51.730;5.356;2023-04-19T02:55:56;10.60;71.30
24618;DHT22;12762;51.730;5.356;2023-04-19T02:58:23;10.60;71.40
24618;DHT22;12762;51.730;5.356;2023-04-19T03:00:50;10.60;71.50
24618;DHT22;12762;51.730;5.356;2023-04-19T03:03:16;10.60;71.50
24618;DHT22;12762;51.730;5.356;2023-04-19T03:05:43;10.60;71.60
24618;DHT22;12762;51.730;5.356;2023-04-19T03:08:10;10.60;71.70
24618;DHT22;12762;51.730;5.356;2023-04-19T03:10:40;10.60;71.70
24618;DHT22;12762;51.730;5.356;2023-04-19T03:13:07;10.60;71.70
24618;DHT22;12762;51.730;5.356;2023-04-19T03:15:34;10.60;71.80
24618;DHT22;12762;51.730;5.356;2023-04-19T03:18:00;10.60;71.80
24618;DHT22;12762;51.730;5.356;2023-04-19T03:20:28;10.60;71.90
24618;DHT22;12762;51.730;5.356;2023-04-19T03:22:54;10.60;71.90
24618;DHT22;12762;51.730;5.356;2023-04-19T03:25:21;10.60;71.90
24618;DHT22;12762;51.730;5.356;2023-04-19T03:27:48;10.60;72.00
24618;DHT22;12762;51.730;5.356;2023-04-19T03:30:17;10.70;72.10
24618;DHT22;12762;51.730;5.356;2023-04-19T03:32:45;10.70;72.10
24618;DHT22;12762;51.730;5.356;2023-04-19T03:35:11;10.70;72.20
24618;DHT22;12762;51.730;5.356;2023-04-19T03:37:41;10.70;72.10
24618;DHT22;12762;51.730;5.356;2023-04-19T03:40:14;10.70;72.20
24618;DHT22;12762;51.730;5.356;2023-04-19T03:42:41;10.70;72.10
24618;DHT22;12762;51.730;5.356;2023-04-19T03:45:08;10.70;72.10
24618;DHT22;12762;51.730;5.356;2023-04-19T03:47:35;10.70;72.20
24618;DHT22;12762;51.730;5.356;2023-04-19T03:50:02;10.70;72.20
24618;DHT22;12762;51.730;5.356;2023-04-19T03:52:29;10.70;72.20
24618;DHT22;12762;51.730;5.356;2023-04-19T03:54:59;10.70;72.30
24618;DHT22;12762;51.730;5.356;2023-04-19T03:57:26;10.70;72.30
24618;DHT22;12762;51.730;5.356;2023-04-19T03:59:53;10.70;72.20
24618;DHT22;12762;51.730;5.356;2023-04-19T04:02:20;10.70;72.20
24618;DHT22;12762;51.730;5.356;2023-04-19T04:04:52;10.70;72.30
24618;DHT22;12762;51.730;5.356;2023-04-19T04:07:20;10.70;72.40
24618;DHT22;12762;51.730;5.356;2023-04-19T04:09:51;10.70;72.30
24618;DHT22;12762;51.730;5.356;2023-04-19T04:12:18;10.70;72.30
24618;DHT22;12762;51.730;5.356;2023-04-19T04:14:45;10.70;72.30
24618;DHT22;12762;51.730;5.356;2023-04-19T04:17:15;10.70;72.30
24618;DHT22;12762;51.730;5.356;2023-04-19T04:19:41;10.70;72.30
24618;DHT22;12762;51.730;5.356;2023-04-19T04:22:08;10.60;72.10
24618;DHT22;12762;51.730;5.356;2023-04-19T04:24:44;10.60;72.20
24618;DHT22;12762;51.730;5.356;2023-04-19T04:27:10;10.50;72.10
24618;DHT22;12762;51.730;5.356;2023-04-19T04:29:38;10.50;72.10
24618;DHT22;12762;51.730;5.356;2023-04-19T04:32:06;10.40;72.10
24618;DHT22;12762;51.730;5.356;2023-04-19T04:34:37;10.30;72.10
24618;DHT22;12762;51.730;5.356;2023-04-19T04:37:06;10.30;72.20
24618;DHT22;12762;51.730;5.356;2023-04-19T04:39:34;10.20;72.20
24618;DHT22;12762;51.730;5.356;2023-04-19T04:42:05;10.20;72.40
24618;DHT22;12762;51.730;5.356;2023-04-19T04:44:36;10.10;72.30
24618;DHT22;12762;51.730;5.356;2023-04-19T04:47:02;10.10;72.40
24618;DHT22;12762;51.730;5.356;2023-04-19T04:49:29;10.00;72.40
24618;DHT22;12762;51.730;5.356;2023-04-19T04:51:56;10.00;72.60
24618;DHT22;12762;51.730;5.356;2023-04-19T04:54:24;9.90;73.60
24618;DHT22;12762;51.730;5.356;2023-04-19T04:56:50;9.90;73.60
24618;DHT22;12762;51.730;5.356;2023-04-19T04:59:17;9.90;73.70
24618;DHT22;12762;51.730;5.356;2023-04-19T05:01:44;9.90;73.80
24618;DHT22;12762;51.730;5.356;2023-04-19T05:04:12;9.80;73.70
24618;DHT22;12762;51.730;5.356;2023-04-19T05:06:39;9.80;73.70
24618;DHT22;12762;51.730;5.356;2023-04-19T05:09:06;9.80;73.80
24618;DHT22;12762;51.730;5.356;2023-04-19T05:11:33;9.80;73.90
24618;DHT22;12762;51.730;5.356;2023-04-19T05:14:01;9.80;73.90
24618;DHT22;12762;51.730;5.356;2023-04-19T05:16:28;9.80;73.90
24618;DHT22;12762;51.730;5.356;2023-04-19T05:18:55;9.80;73.90
24618;DHT22;12762;51.730;5.356;2023-04-19T05:21:22;9.70;73.90
24618;DHT22;12762;51.730;5.356;2023-04-19T05:23:49;9.70;73.90
24618;DHT22;12762;51.730;5.356;2023-04-19T05:26:22;9.70;73.90
24618;DHT22;12762;51.730;5.356;2023-04-19T05:28:49;9.70;73.90
24618;DHT22;12762;51.730;5.356;2023-04-19T05:31:18;9.70;73.90
24618;DHT22;12762;51.730;5.356;2023-04-19T05:33:47;9.70;74.00
24618;DHT22;12762;51.730;5.356;2023-04-19T05:36:14;9.70;74.00
24618;DHT22;12762;51.730;5.356;2023-04-19T05:38:41;9.70;73.90
24618;DHT22;12762;51.730;5.356;2023-04-19T05:41:08;9.70;74.00
24618;DHT22;12762;51.730;5.356;2023-04-19T05:43:35;9.70;73.90
24618;DHT22;12762;51.730;5.356;2023-04-19T05:46:02;9.70;73.90
24618;DHT22;12762;51.730;5.356;2023-04-19T05:48:28;9.70;73.90
24618;DHT22;12762;51.730;5.356;2023-04-19T05:50:56;9.70;73.80
24618;DHT22;12762;51.730;5.356;2023-04-19T05:53:23;9.70;74.60
24618;DHT22;12762;51.730;5.356;2023-04-19T05:55:50;9.80;73.80
24618;DHT22;12762;51.730;5.356;2023-04-19T05:58:17;9.80;73.70
24618;DHT22;12762;51.730;5.356;2023-04-19T06:00:45;9.80;73.60
24618;DHT22;12762;51.730;5.356;2023-04-19T06:03:12;9.80;73.50
24618;DHT22;12762;51.730;5.356;2023-04-19T06:05:39;9.80;73.40
24618;DHT22;12762;51.730;5.356;2023-04-19T06:08:09;9.90;73.40
24618;DHT22;12762;51.730;5.356;2023-04-19T06:10:37;9.90;73.30
24618;DHT22;12762;51.730;5.356;2023-04-19T06:13:18;9.90;73.20
24618;DHT22;12762;51.730;5.356;2023-04-19T06:15:46;10.00;72.00
24618;DHT22;12762;51.730;5.356;2023-04-19T06:18:13;10.00;71.90
24618;DHT22;12762;51.730;5.356;2023-04-19T06:20:45;10.00;71.70
24618;DHT22;12762;51.730;5.356;2023-04-19T06:23:13;10.00;71.60
24618;DHT22;12762;51.730;5.356;2023-04-19T06:25:40;10.10;71.60
24618;DHT22;12762;51.730;5.356;2023-04-19T06:28:07;10.10;71.50
24618;DHT22;12762;51.730;5.356;2023-04-19T06:30:34;10.10;71.30
24618;DHT22;12762;51.730;5.356;2023-04-19T06:33:01;10.20;71.30
24618;DHT22;12762;51.730;5.356;2023-04-19T06:35:28;10.20;71.10
24618;DHT22;12762;51.730;5.356;2023-04-19T06:37:55;10.20;71.00
24618;DHT22;12762;51.730;5.356;2023-04-19T06:40:22;10.30;70.90
24618;DHT22;12762;51.730;5.356;2023-04-19T06:42:48;10.30;70.70
24618;DHT22;12762;51.730;5.356;2023-04-19T06:45:16;10.40;70.70
24618;DHT22;12762;51.730;5.356;2023-04-19T06:47:42;10.40;70.40
24618;DHT22;12762;51.730;5.356;2023-04-19T06:50:12;10.40;70.30
24618;DHT22;12762;51.730;5.356;2023-04-19T06:52:39;10.50;70.20
24618;DHT22;12762;51.730;5.356;2023-04-19T06:55:06;10.50;70.10
24618;DHT22;12762;51.730;5.356;2023-04-19T06:57:36;10.60;70.00
24618;DHT22;12762;51.730;5.356;2023-04-19T07:00:03;10.60;69.80
24618;DHT22;12762;51.730;5.356;2023-04-19T07:02:32;10.70;69.80
24618;DHT22;12762;51.730;5.356;2023-04-19T07:05:02;10.70;69.60
24618;DHT22;12762;51.730;5.356;2023-04-19T07:07:30;10.80;69.50
24618;DHT22;12762;51.730;5.356;2023-04-19T07:09:58;10.80;69.20
24618;DHT22;12762;51.730;5.356;2023-04-19T07:12:25;10.90;69.00
24618;DHT22;12762;51.730;5.356;2023-04-19T07:14:52;10.90;68.90
24618;DHT22;12762;51.730;5.356;2023-04-19T07:17:22;11.00;68.70
24618;DHT22;12762;51.730;5.356;2023-04-19T07:19:49;11.30;69.60
24618;DHT22;12762;51.730;5.356;2023-04-19T07:22:16;12.20;70.60
24618;DHT22;12762;51.730;5.356;2023-04-19T07:24:42;13.40;70.20
24618;DHT22;12762;51.730;5.356;2023-04-19T07:27:10;14.60;69.00
24618;DHT22;12762;51.730;5.356;2023-04-19T07:29:37;15.70;67.20
24618;DHT22;12762;51.730;5.356;2023-04-19T07:32:04;16.80;65.00
24618;DHT22;12762;51.730;5.356;2023-04-19T07:34:36;17.50;62.70
24618;DHT22;12762;51.730;5.356;2023-04-19T07:37:03;18.10;61.00
24618;DHT22;12762;51.730;5.356;2023-04-19T07:39:31;18.70;59.80
24618;DHT22;12762;51.730;5.356;2023-04-19T07:41:58;19.30;58.70
24618;DHT22;12762;51.730;5.356;2023-04-19T07:44:25;19.70;57.90
24618;DHT22;12762;51.730;5.356;2023-04-19T07:46:51;20.10;57.10
24618;DHT22;12762;51.730;5.356;2023-04-19T07:49:18;20.40;56.20
24618;DHT22;12762;51.730;5.356;2023-04-19T07:51:45;20.60;55.30
24618;DHT22;12762;51.730;5.356;2023-04-19T07:54:12;20.70;54.70
24618;DHT22;12762;51.730;5.356;2023-04-19T07:56:39;20.90;54.30
24618;DHT22;12762;51.730;5.356;2023-04-19T07:59:07;21.10;53.90
24618;DHT22;12762;51.730;5.356;2023-04-19T08:01:35;21.30;53.50
24618;DHT22;12762;51.730;5.356;2023-04-19T08:04:03;21.30;53.10
24618;DHT22;12762;51.730;5.356;2023-04-19T08:06:30;21.40;53.00
24618;DHT22;12762;51.730;5.356;2023-04-19T08:08:58;21.40;52.70
24618;DHT22;12762;51.730;5.356;2023-04-19T08:11:24;21.20;52.50
24618;DHT22;12762;51.730;5.356;2023-04-19T08:13:51;21.10;52.20
24618;DHT22;12762;51.730;5.356;2023-04-19T08:16:34;20.90;52.30
24618;DHT22;12762;51.730;5.356;2023-04-19T08:19:04;20.80;52.40
24618;DHT22;12762;51.730;5.356;2023-04-19T08:21:31;20.70;52.30
24618;DHT22;12762;51.730;5.356;2023-04-19T08:24:07;20.60;52.20
24618;DHT22;12762;51.730;5.356;2023-04-19T08:26:34;20.50;52.40
24618;DHT22;12762;51.730;5.356;2023-04-19T08:29:01;20.40;52.30
24618;DHT22;12762;51.730;5.356;2023-04-19T08:31:28;20.40;52.10
24618;DHT22;12762;51.730;5.356;2023-04-19T08:33:54;20.30;52.00
24618;DHT22;12762;51.730;5.356;2023-04-19T08:36:22;20.20;51.90
24618;DHT22;12762;51.730;5.356;2023-04-19T08:39:06;20.20;52.10
24618;DHT22;12762;51.730;5.356;2023-04-19T08:41:43;20.30;51.90
24618;DHT22;12762;51.730;5.356;2023-04-19T08:44:13;20.30;52.10
24618;DHT22;12762;51.730;5.356;2023-04-19T08:46:57;20.30;51.80
24618;DHT22;12762;51.730;5.356;2023-04-19T08:49:25;20.30;51.30
24618;DHT22;12762;51.730;5.356;2023-04-19T08:51:54;20.20;51.10
24618;DHT22;12762;51.730;5.356;2023-04-19T08:54:22;20.30;51.20
24618;DHT22;12762;51.730;5.356;2023-04-19T08:56:51;20.20;51.10
24618;DHT22;12762;51.730;5.356;2023-04-19T08:59:18;20.20;50.40
24618;DHT22;12762;51.730;5.356;2023-04-19T09:01:52;20.20;50.40
24618;DHT22;12762;51.730;5.356;2023-04-19T09:04:20;20.20;50.40
24618;DHT22;12762;51.730;5.356;2023-04-19T09:07:01;20.20;50.40
24618;DHT22;12762;51.730;5.356;2023-04-19T09:09:31;20.30;50.60
24618;DHT22;12762;51.730;5.356;2023-04-19T09:12:15;20.40;50.60
24618;DHT22;12762;51.730;5.356;2023-04-19T09:14:46;20.60;50.60
24618;DHT22;12762;51.730;5.356;2023-04-19T09:17:16;20.60;50.20
24618;DHT22;12762;51.730;5.356;2023-04-19T09:19:49;20.60;50.20
24618;DHT22;12762;51.730;5.356;2023-04-19T09:22:17;20.70;49.90
24618;DHT22;12762;51.730;5.356;2023-04-19T09:24:44;20.80;50.20
24618;DHT22;12762;51.730;5.356;2023-04-19T09:27:35;20.90;49.40
24618;DHT22;12762;51.730;5.356;2023-04-19T09:30:05;21.00;49.20
24618;DHT22;12762;51.730;5.356;2023-04-19T09:32:47;21.00;48.80
24618;DHT22;12762;51.730;5.356;2023-04-19T09:35:15;21.10;48.60
24618;DHT22;12762;51.730;5.356;2023-04-19T09:37:42;21.00;48.30
24618;DHT22;12762;51.730;5.356;2023-04-19T09:40:22;21.00;48.30
24618;DHT22;12762;51.730;5.356;2023-04-19T09:42:49;21.00;47.90
24618;DHT22;12762;51.730;5.356;2023-04-19T09:45:19;20.90;48.20
24618;DHT22;12762;51.730;5.356;2023-04-19T09:48:04;20.80;47.80
24618;DHT22;12762;51.730;5.356;2023-04-19T09:50:34;20.80;48.50
24618;DHT22;12762;51.730;5.356;2023-04-19T09:53:20;20.70;47.90
24618;DHT22;12762;51.730;5.356;2023-04-19T09:55:48;20.80;47.70
24618;DHT22;12762;51.730;5.356;2023-04-19T09:58:27;20.70;47.60
24618;DHT22;12762;51.730;5.356;2023-04-19T10:01:03;20.70;47.30
24618;DHT22;12762;51.730;5.356;2023-04-19T10:03:34;20.70;47.20
24618;DHT22;12762;51.730;5.356;2023-04-19T10:06:01;20.70;47.20
24618;DHT22;12762;51.730;5.356;2023-04-19T10:08:40;20.70;47.30
24618;DHT22;12762;51.730;5.356;2023-04-19T10:11:06;20.70;47.30
24618;DHT22;12762;51.730;5.356;2023-04-19T10:13:33;20.90;46.90
24618;DHT22;12762;51.730;5.356;2023-04-19T10:16:02;20.90;46.50
24618;DHT22;12762;51.730;5.356;2023-04-19T10:18:44;21.00;46.00
24618;DHT22;12762;51.730;5.356;2023-04-19T10:21:12;21.10;46.30
24618;DHT22;12762;51.730;5.356;2023-04-19T10:23:40;21.20;45.80
24618;DHT22;12762;51.730;5.356;2023-04-19T10:26:07;21.30;45.40
24618;DHT22;12762;51.730;5.356;2023-04-19T10:28:35;21.30;45.10
24618;DHT22;12762;51.730;5.356;2023-04-19T10:31:03;21.30;45.10
24618;DHT22;12762;51.730;5.356;2023-04-19T10:33:34;21.40;44.90
24618;DHT22;12762;51.730;5.356;2023-04-19T10:36:08;21.40;44.40
24618;DHT22;12762;51.730;5.356;2023-04-19T10:38:43;21.40;44.70
24618;DHT22;12762;51.730;5.356;2023-04-19T10:41:14;21.40;44.90
24618;DHT22;12762;51.730;5.356;2023-04-19T10:44:10;21.50;44.60
24618;DHT22;12762;51.730;5.356;2023-04-19T10:46:38;21.50;44.90
24618;DHT22;12762;51.730;5.356;2023-04-19T10:49:08;21.60;44.30
24618;DHT22;12762;51.730;5.356;2023-04-19T10:51:39;21.50;43.90
24618;DHT22;12762;51.730;5.356;2023-04-19T10:54:33;21.50;43.60
24618;DHT22;12762;51.730;5.356;2023-04-19T10:57:08;21.50;43.90
24618;DHT22;12762;51.730;5.356;2023-04-19T10:59:41;21.50;43.90
24618;DHT22;12762;51.730;5.356;2023-04-19T11:07:18;21.60;44.10
24618;DHT22;12762;51.730;5.356;2023-04-19T11:09:48;21.60;43.50
24618;DHT22;12762;51.730;5.356;2023-04-19T11:12:18;21.70;43.60
24618;DHT22;12762;51.730;5.356;2023-04-19T11:14:48;21.70;43.60
24618;DHT22;12762;51.730;5.356;2023-04-19T11:17:18;21.80;43.10
24618;DHT22;12762;51.730;5.356;2023-04-19T11:19:56;21.90;42.90
24618;DHT22;12762;51.730;5.356;2023-04-19T11:22:39;21.90;42.80
24618;DHT22;12762;51.730;5.356;2023-04-19T11:25:15;21.80;42.50
24618;DHT22;12762;51.730;5.356;2023-04-19T11:27:44;21.80;42.30
24618;DHT22;12762;51.730;5.356;2023-04-19T11:30:17;21.90;42.90
24618;DHT22;12762;51.730;5.356;2023-04-19T11:32:58;22.00;42.40
24618;DHT22;12762;51.730;5.356;2023-04-19T11:35:27;22.10;42.20
24618;DHT22;12762;51.730;5.356;2023-04-19T11:37:55;22.10;42.30
24618;DHT22;12762;51.730;5.356;2023-04-19T11:40:23;22.10;41.80
24618;DHT22;12762;51.730;5.356;2023-04-19T11:42:58;22.20;41.70
24618;DHT22;12762;51.730;5.356;2023-04-19T11:45:36;22.20;41.50
24618;DHT22;12762;51.730;5.356;2023-04-19T11:48:07;22.20;41.30
24618;DHT22;12762;51.730;5.356;2023-04-19T11:50:41;22.20;41.40
24618;DHT22;12762;51.730;5.356;2023-04-19T11:53:10;22.20;41.10
24618;DHT22;12762;51.730;5.356;2023-04-19T11:55:37;22.30;40.90
24618;DHT22;12762;51.730;5.356;2023-04-19T11:58:07;22.20;40.90
24618;DHT22;12762;51.730;5.356;2023-04-19T12:00:35;22.30;40.20
24618;DHT22;12762;51.730;5.356;2023-04-19T12:03:03;22.30;40.30
24618;DHT22;12762;51.730;5.356;2023-04-19T12:05:30;22.30;39.90
24618;DHT22;12762;51.730;5.356;2023-04-19T12:08:07;22.30;39.80
24618;DHT22;12762;51.730;5.356;2023-04-19T12:10:34;22.20;39.50
24618;DHT22;12762;51.730;5.356;2023-04-19T12:13:16;22.20;39.80
24618;DHT22;12762;51.730;5.356;2023-04-19T12:15:44;22.30;39.60
24618;DHT22;12762;51.730;5.356;2023-04-19T12:18:11;22.40;40.10
24618;DHT22;12762;51.730;5.356;2023-04-19T12:20:44;22.50;39.90
24618;DHT22;12762;51.730;5.356;2023-04-19T12:23:13;22.60;39.60
24618;DHT22;12762;51.730;5.356;2023-04-19T12:25:43;22.70;39.30
24618;DHT22;12762;51.730;5.356;2023-04-19T12:28:10;22.70;39.10
24618;DHT22;12762;51.730;5.356;2023-04-19T12:30:38;22.70;38.70
24618;DHT22;12762;51.730;5.356;2023-04-19T12:33:05;22.70;38.50
24618;DHT22;12762;51.730;5.356;2023-04-19T12:35:33;22.70;38.40
24618;DHT22;12762;51.730;5.356;2023-04-19T12:38:01;22.80;38.50
24618;DHT22;12762;51.730;5.356;2023-04-19T12:40:29;22.90;38.60
24618;DHT22;12762;51.730;5.356;2023-04-19T12:42:56;23.00;38.10
24618;DHT22;12762;51.730;5.356;2023-04-19T12:45:23;23.00;37.70
24618;DHT22;12762;51.730;5.356;2023-04-19T12:47:49;22.90;37.30
24618;DHT22;12762;51.730;5.356;2023-04-19T12:50:16;22.90;37.10
24618;DHT22;12762;51.730;5.356;2023-04-19T12:52:44;22.90;36.90
24618;DHT22;12762;51.730;5.356;2023-04-19T12:55:12;22.90;36.80
24618;DHT22;12762;51.730;5.356;2023-04-19T12:57:41;23.00;36.70
24618;DHT22;12762;51.730;5.356;2023-04-19T13:00:08;22.90;36.60
24618;DHT22;12762;51.730;5.356;2023-04-19T13:02:36;22.90;36.60
24618;DHT22;12762;51.730;5.356;2023-04-19T13:05:04;23.00;37.30
24618;DHT22;12762;51.730;5.356;2023-04-19T13:07:31;23.00;36.00
24618;DHT22;12762;51.730;5.356;2023-04-19T13:09:58;23.00;36.50
24618;DHT22;12762;51.730;5.356;2023-04-19T13:12:27;23.00;36.40
24618;DHT22;12762;51.730;5.356;2023-04-19T13:14:53;23.10;35.80
24618;DHT22;12762;51.730;5.356;2023-04-19T13:17:20;23.00;35.50
24618;DHT22;12762;51.730;5.356;2023-04-19T13:19:47;22.90;35.40
24618;DHT22;12762;51.730;5.356;2023-04-19T13:22:16;22.90;35.60
24618;DHT22;12762;51.730;5.356;2023-04-19T13:24:43;22.80;35.70
24618;DHT22;12762;51.730;5.356;2023-04-19T13:27:10;22.90;36.10
24618;DHT22;12762;51.730;5.356;2023-04-19T13:29:37;22.90;36.00
24618;DHT22;12762;51.730;5.356;2023-04-19T13:32:04;23.00;36.10
24618;DHT22;12762;51.730;5.356;2023-04-19T13:34:33;23.10;35.80
24618;DHT22;12762;51.730;5.356;2023-04-19T13:37:00;23.20;35.50
24618;DHT22;12762;51.730;5.356;2023-04-19T13:39:27;23.10;35.30
24618;DHT22;12762;51.730;5.356;2023-04-19T13:41:54;23.10;36.10
24618;DHT22;12762;51.730;5.356;2023-04-19T13:44:21;23.10;35.30
24618;DHT22;12762;51.730;5.356;2023-04-19T13:46:48;23.10;34.90
24618;DHT22;12762;51.730;5.356;2023-04-19T13:49:16;23.10;34.90
24618;DHT22;12762;51.730;5.356;2023-04-19T13:51:42;23.00;34.80
24618;DHT22;12762;51.730;5.356;2023-04-19T13:54:17;22.80;34.30
24618;DHT22;12762;51.730;5.356;2023-04-19T13:56:45;22.80;35.00
24618;DHT22;12762;51.730;5.356;2023-04-19T13:59:14;22.80;34.90
24618;DHT22;12762;51.730;5.356;2023-04-19T14:01:41;22.80;34.50
24618;DHT22;12762;51.730;5.356;2023-04-19T14:04:08;22.80;34.20
24618;DHT22;12762;51.730;5.356;2023-04-19T14:06:37;22.70;34.30
24618;DHT22;12762;51.730;5.356;2023-04-19T14:09:04;22.70;34.00
24618;DHT22;12762;51.730;5.356;2023-04-19T14:11:32;22.70;34.10
24618;DHT22;12762;51.730;5.356;2023-04-19T14:14:01;22.60;34.00
24618;DHT22;12762;51.730;5.356;2023-04-19T14:16:28;22.60;33.80
24618;DHT22;12762;51.730;5.356;2023-04-19T14:18:54;22.60;33.60
24618;DHT22;12762;51.730;5.356;2023-04-19T14:21:21;22.50;33.70
24618;DHT22;12762;51.730;5.356;2023-04-19T14:23:48;22.50;33.70
24618;DHT22;12762;51.730;5.356;2023-04-19T14:26:15;22.50;33.70
24618;DHT22;12762;51.730;5.356;2023-04-19T14:28:41;22.50;34.70
24618;DHT22;12762;51.730;5.356;2023-04-19T14:31:08;22.60;34.70
24618;DHT22;12762;51.730;5.356;2023-04-19T14:33:35;22.60;34.50
24618;DHT22;12762;51.730;5.356;2023-04-19T14:36:05;22.60;34.30
24618;DHT22;12762;51.730;5.356;2023-04-19T14:38:32;22.60;34.20
24618;DHT22;12762;51.730;5.356;2023-04-19T14:41:00;22.70;34.10
24618;DHT22;12762;51.730;5.356;2023-04-19T14:43:26;22.60;33.80
24618;DHT22;12762;51.730;5.356;2023-04-19T14:45:53;22.70;34.00
24618;DHT22;12762;51.730;5.356;2023-04-19T14:48:21;22.70;34.00
24618;DHT22;12762;51.730;5.356;2023-04-19T14:50:50;22.70;33.80
24618;DHT22;12762;51.730;5.356;2023-04-19T14:53:16;22.70;33.90
24618;DHT22;12762;51.730;5.356;2023-04-19T14:55:43;22.60;33.50
24618;DHT22;12762;51.730;5.356;2023-04-19T14:58:10;22.60;33.40
24618;DHT22;12762;51.730;5.356;2023-04-19T15:00:37;22.50;33.30
24618;DHT22;12762;51.730;5.356;2023-04-19T15:03:04;22.50;33.40
24618;DHT22;12762;51.730;5.356;2023-04-19T15:05:33;22.50;33.50
24618;DHT22;12762;51.730;5.356;2023-04-19T15:08:00;22.60;33.40
24618;DHT22;12762;51.730;5.356;2023-04-19T15:10:27;22.70;33.80
24618;DHT22;12762;51.730;5.356;2023-04-19T15:12:54;22.60;33.60
24618;DHT22;12762;51.730;5.356;2023-04-19T15:15:21;22.60;33.60
24618;DHT22;12762;51.730;5.356;2023-04-19T15:17:48;22.50;33.50
24618;DHT22;12762;51.730;5.356;2023-04-19T15:20:15;22.50;33.30
24618;DHT22;12762;51.730;5.356;2023-04-19T15:22:41;22.50;33.30
24618;DHT22;12762;51.730;5.356;2023-04-19T15:25:08;22.50;33.10
24618;DHT22;12762;51.730;5.356;2023-04-19T15:27:35;22.50;33.20
24618;DHT22;12762;51.730;5.356;2023-04-19T15:30:03;22.40;33.10
24618;DHT22;12762;51.730;5.356;2023-04-19T15:32:30;22.30;33.10
24618;DHT22;12762;51.730;5.356;2023-04-19T15:34:59;22.20;33.40
24618;DHT22;12762;51.730;5.356;2023-04-19T15:37:26;22.10;33.00
24618;DHT22;12762;51.730;5.356;2023-04-19T15:39:53;22.00;33.00
24618;DHT22;12762;51.730;5.356;2023-04-19T15:42:20;22.00;33.00
24618;DHT22;12762;51.730;5.356;2023-04-19T15:44:47;21.90;33.10
24618;DHT22;12762;51.730;5.356;2023-04-19T15:47:14;21.90;33.50